createdAt,value
2019-01-06T00:02:14.154Z,88.16
2019-01-06T00:07:55.572Z,88.31
2019-01-06T00:10:43.302Z,88.97
2019-01-06T00:13:31.016Z,88.86
2019-01-06T00:16:18.764Z,88.91
2019-01-06T00:19:06.428Z,89.31
2019-01-06T00:21:54.153Z,89.48
2019-01-06T00:24:41.876Z,89.80
2019-01-06T00:27:29.575Z,90.33
2019-01-06T00:35:38.233Z,90.26
2019-01-06T00:38:25.954Z,91.94
2019-01-06T00:41:13.686Z,92.61
2019-01-06T00:44:01.348Z,93.22
2019-01-06T00:46:49.079Z,93.20
2019-01-06T00:52:25.872Z,93.45
2019-01-06T00:58:10.042Z,93.70
2019-01-06T01:06:08.508Z,93.59
2019-01-06T01:08:56.233Z,93.50
2019-01-06T01:11:43.934Z,92.84
2019-01-06T01:14:31.636Z,92.04
2019-01-06T01:17:19.346Z,91.47
2019-01-06T01:22:56.116Z,91.47
2019-01-06T01:25:43.869Z,91.01
2019-01-06T01:28:31.558Z,91.19
2019-01-06T01:31:19.284Z,91.37
2019-01-06T01:34:07.058Z,91.61
2019-01-06T01:36:54.733Z,91.57
2019-01-06T01:39:42.416Z,90.95
2019-01-06T01:42:30.147Z,91.03
2019-01-06T01:45:17.836Z,91.84
2019-01-06T01:50:40.903Z,92.41
2019-01-06T01:53:28.602Z,92.43
2019-01-06T01:59:05.372Z,91.90
2019-01-06T02:01:53.090Z,92.57
2019-01-06T02:04:40.809Z,92.93
2019-01-06T02:07:28.524Z,92.38
2019-01-06T02:10:16.230Z,92.65
2019-01-06T02:13:03.938Z,93.50
2019-01-06T02:18:40.713Z,93.31
2019-01-06T02:21:28.424Z,94.41
2019-01-06T02:24:16.117Z,94.90
2019-01-06T02:32:33.968Z,96.04
2019-01-06T02:35:21.726Z,95.95
2019-01-06T02:38:09.420Z,96.38
2019-01-06T02:40:57.123Z,96.68
2019-01-06T02:43:44.817Z,96.44
2019-01-06T02:49:21.583Z,96.39
2019-01-06T02:52:09.276Z,95.90
2019-01-06T02:54:56.974Z,96.29
2019-01-06T03:00:33.753Z,96.00
2019-01-06T03:03:21.460Z,95.82
2019-01-06T03:06:09.173Z,96.18
2019-01-06T03:08:56.877Z,96.02
2019-01-06T03:11:44.586Z,96.14
2019-01-06T03:14:32.329Z,95.88
2019-01-06T03:17:20.002Z,96.59
2019-01-06T03:20:07.740Z,96.72
2019-01-06T03:22:55.420Z,96.21
2019-01-06T03:25:43.171Z,96.60
2019-01-06T03:31:19.955Z,96.36
2019-01-06T03:34:07.633Z,96.12
2019-01-06T03:36:55.367Z,96.27
2019-01-06T03:39:43.054Z,95.82
2019-01-06T03:45:06.422Z,96.13
2019-01-06T03:47:54.130Z,95.69
2019-01-06T03:50:41.852Z,95.33
2019-01-06T03:53:29.546Z,94.81
2019-01-06T03:56:17.264Z,94.52
2019-01-06T03:59:04.984Z,94.37
2019-01-06T04:04:34.018Z,93.85
2019-01-06T04:10:07.174Z,93.60
2019-01-06T04:12:54.899Z,93.72
2019-01-06T04:18:31.706Z,93.66
2019-01-06T04:21:19.397Z,93.70
2019-01-06T04:24:27.923Z,94.07
2019-01-06T04:27:15.628Z,94.20
2019-01-06T04:30:03.342Z,94.22
2019-01-06T04:32:51.046Z,94.82
2019-01-06T04:35:38.746Z,94.82
2019-01-06T04:38:26.454Z,94.66
2019-01-06T04:41:14.165Z,94.66
2019-01-06T04:46:47.194Z,94.62
2019-01-06T04:49:34.919Z,94.53
2019-01-06T04:52:22.621Z,94.65
2019-01-06T04:55:10.353Z,94.35
2019-01-06T04:57:58.037Z,94.02
2019-01-06T05:00:45.770Z,94.28
2019-01-06T05:08:57.965Z,93.95
2019-01-06T05:11:45.666Z,93.92
2019-01-06T05:14:33.374Z,94.30
2019-01-06T05:17:21.081Z,94.37
2019-01-06T05:20:08.786Z,94.02
2019-01-06T05:22:56.495Z,94.28
2019-01-06T05:25:44.206Z,93.93
2019-01-06T05:28:31.933Z,94.09
2019-01-06T05:31:19.627Z,94.25
2019-01-06T05:34:07.356Z,93.82
2019-01-06T05:36:55.035Z,93.54
2019-01-06T05:39:42.769Z,93.51
2019-01-06T05:42:30.456Z,93.37
2019-01-06T05:45:18.187Z,92.88
2019-01-06T05:48:05.898Z,92.83
2019-01-06T05:50:53.626Z,92.54
2019-01-06T05:53:41.316Z,92.47
2019-01-06T05:59:14.650Z,92.55
2019-01-06T06:04:37.855Z,92.48
2019-01-06T06:07:25.573Z,92.62
2019-01-06T06:15:47.952Z,92.21
2019-01-06T06:18:35.646Z,92.83
2019-01-06T06:24:08.795Z,92.17
2019-01-06T06:26:56.965Z,91.79
2019-01-06T06:29:44.658Z,91.75
2019-01-06T06:32:32.371Z,91.12
2019-01-06T06:38:09.139Z,91.02
2019-01-06T06:40:56.842Z,90.91
2019-01-06T06:46:20.183Z,90.88
2019-01-06T06:49:07.914Z,91.05
2019-01-06T06:51:55.622Z,91.00
2019-01-06T06:54:43.319Z,90.65
2019-01-06T06:57:54.827Z,91.04
2019-01-06T07:06:48.637Z,91.11
2019-01-06T07:09:36.352Z,90.81
2019-01-06T07:12:24.083Z,90.65
2019-01-06T07:15:11.759Z,90.81
2019-01-06T07:18:18.838Z,91.06
2019-01-06T07:21:06.537Z,90.59
2019-01-06T07:23:54.261Z,90.53
2019-01-06T07:26:41.989Z,90.36
2019-01-06T07:29:29.706Z,90.03
2019-01-06T07:35:06.502Z,90.07
2019-01-06T07:37:54.210Z,89.84
2019-01-06T07:40:41.933Z,89.76
2019-01-06T07:46:14.842Z,89.27
2019-01-06T07:49:02.548Z,89.38
2019-01-06T07:52:09.601Z,89.22
2019-01-06T07:54:57.321Z,89.26
2019-01-06T07:57:45.056Z,88.44
2019-01-06T08:00:32.918Z,87.98
2019-01-06T08:03:20.659Z,88.05
2019-01-06T08:08:43.705Z,87.28
2019-01-06T08:11:31.453Z,87.99
2019-01-06T08:14:19.137Z,87.87
2019-01-06T08:17:06.874Z,87.56
2019-01-06T08:19:54.686Z,87.56
2019-01-06T08:22:42.409Z,87.37
2019-01-06T08:25:30.121Z,87.75
2019-01-06T08:31:06.963Z,87.37
2019-01-06T08:33:54.651Z,86.26
2019-01-06T08:36:42.399Z,86.84
2019-01-06T08:39:30.089Z,86.68
2019-01-06T08:42:17.818Z,87.20
2019-01-06T08:50:40.041Z,86.13
2019-01-06T08:53:27.757Z,86.60
2019-01-06T08:56:15.489Z,85.74
2019-01-06T09:01:52.368Z,85.98
2019-01-06T09:04:40.143Z,85.38
2019-01-06T09:07:27.871Z,85.61
2019-01-06T09:10:15.587Z,86.32
2019-01-06T09:13:03.382Z,84.94
2019-01-06T09:15:51.126Z,85.00
2019-01-06T09:18:38.841Z,85.67
2019-01-06T09:24:15.602Z,85.93
2019-01-06T09:29:38.985Z,85.99
2019-01-06T09:32:26.682Z,85.51
2019-01-06T09:35:14.390Z,83.85
2019-01-06T09:38:02.087Z,82.84
2019-01-06T09:43:39.007Z,83.98
2019-01-06T09:49:15.779Z,82.49
2019-01-06T09:54:52.547Z,81.14
2019-01-06T09:57:40.285Z,81.40
2019-01-06T10:00:48.812Z,80.70
2019-01-06T10:03:36.497Z,82.85
2019-01-06T10:08:59.544Z,83.53
2019-01-06T10:11:47.232Z,80.38
2019-01-06T10:14:34.965Z,80.42
2019-01-06T10:17:22.643Z,82.38
2019-01-06T10:20:10.396Z,82.46
2019-01-06T10:22:58.061Z,80.79
2019-01-06T10:25:45.781Z,79.41
2019-01-06T10:28:33.514Z,82.38
2019-01-06T10:31:21.201Z,82.50
2019-01-06T10:34:08.908Z,81.35
2019-01-06T10:36:56.615Z,82.81
2019-01-06T10:39:44.352Z,83.17
2019-01-06T10:42:32.056Z,83.18
2019-01-06T10:48:05.282Z,80.87
2019-01-06T10:53:28.612Z,81.25
2019-01-06T10:56:16.319Z,81.10
2019-01-06T10:59:04.975Z,80.99
2019-01-06T11:01:52.728Z,82.10
2019-01-06T11:04:40.483Z,81.24
2019-01-06T11:12:52.643Z,79.58
2019-01-06T11:15:40.333Z,79.11
2019-01-06T11:18:28.030Z,80.74
2019-01-06T11:21:15.727Z,76.92
2019-01-06T11:24:03.426Z,75.02
2019-01-06T11:32:02.136Z,74.10
2019-01-06T11:34:49.838Z,74.42
2019-01-06T11:37:37.545Z,75.24
2019-01-06T11:40:46.062Z,73.83
2019-01-06T11:43:33.752Z,73.96
2019-01-06T11:46:21.483Z,73.11
2019-01-06T11:49:09.163Z,71.15
2019-01-06T11:51:56.892Z,72.97
2019-01-06T11:54:44.567Z,71.11
2019-01-06T11:57:32.303Z,72.37
2019-01-06T12:03:09.112Z,71.25
2019-01-06T12:05:56.797Z,73.94
2019-01-06T12:08:44.527Z,76.73
2019-01-06T12:11:32.225Z,76.22
2019-01-06T12:14:19.934Z,77.02
2019-01-06T12:19:53.019Z,77.49
2019-01-06T12:22:40.748Z,75.77
2019-01-06T12:25:28.434Z,77.29
2019-01-06T12:28:16.167Z,75.21
2019-01-06T12:33:52.981Z,77.57
2019-01-06T12:36:40.666Z,77.80
2019-01-06T12:39:28.404Z,78.38
2019-01-06T12:42:16.116Z,78.87
2019-01-06T12:45:03.843Z,78.50
2019-01-06T12:47:51.549Z,77.38
2019-01-06T12:50:39.261Z,76.37
2019-01-06T12:53:26.979Z,77.40
2019-01-06T12:56:14.706Z,74.61
2019-01-06T12:59:02.404Z,74.27
2019-01-06T13:01:50.174Z,76.14
2019-01-06T13:04:37.915Z,77.47
2019-01-06T13:07:25.633Z,75.39
2019-01-06T13:10:13.346Z,76.22
2019-01-06T13:13:01.121Z,74.88
2019-01-06T13:15:48.872Z,75.45
2019-01-06T13:18:36.680Z,75.87
2019-01-06T13:21:24.454Z,74.49
2019-01-06T13:24:12.182Z,73.94
2019-01-06T13:29:53.591Z,75.21
2019-01-06T13:35:30.375Z,75.90
2019-01-06T13:38:18.052Z,75.54
2019-01-06T13:41:05.747Z,75.36
2019-01-06T13:46:28.831Z,75.01
2019-01-06T13:49:16.543Z,75.21
2019-01-06T13:52:04.252Z,75.52
2019-01-06T13:54:51.953Z,75.92
2019-01-06T13:57:39.649Z,76.04
2019-01-06T14:00:48.167Z,76.88
2019-01-06T14:03:35.870Z,76.67
2019-01-06T14:06:32.305Z,76.57
2019-01-06T14:09:20.089Z,76.94
2019-01-06T14:12:07.773Z,77.08
2019-01-06T14:14:55.509Z,76.64
2019-01-06T14:20:32.317Z,77.03
2019-01-06T14:23:20.000Z,75.92
2019-01-06T14:26:07.740Z,76.69
2019-01-06T14:28:55.445Z,76.08
2019-01-06T14:31:43.174Z,76.62
2019-01-06T14:34:30.890Z,76.40
2019-01-06T14:37:18.618Z,76.74
2019-01-06T14:40:06.329Z,76.54
2019-01-06T14:42:54.070Z,76.76
2019-01-06T14:45:41.779Z,76.71
2019-01-06T14:48:29.495Z,77.68
2019-01-06T14:51:17.201Z,78.26
2019-01-06T14:54:04.911Z,78.52
2019-01-06T14:56:52.617Z,78.65
2019-01-06T14:59:40.324Z,78.58
2019-01-06T15:02:28.029Z,78.47
2019-01-06T15:10:47.287Z,78.48
2019-01-06T15:16:10.073Z,78.85
2019-01-06T15:18:57.748Z,78.85
2019-01-06T15:27:38.563Z,79.05
2019-01-06T15:30:47.091Z,79.10
2019-01-06T15:36:20.283Z,79.19
2019-01-06T15:41:43.490Z,78.75
2019-01-06T15:44:31.171Z,79.04
2019-01-06T15:47:18.915Z,79.23
2019-01-06T15:52:42.055Z,80.11
2019-01-06T15:55:29.759Z,79.75
2019-01-06T15:58:17.457Z,80.09
2019-01-06T16:01:05.158Z,80.30
2019-01-06T16:03:52.866Z,79.99
2019-01-06T16:06:40.568Z,80.01
2019-01-06T16:09:28.275Z,80.36
2019-01-06T16:15:05.056Z,79.77
2019-01-06T16:17:52.771Z,79.82
2019-01-06T16:23:16.103Z,80.26
2019-01-06T16:28:52.872Z,80.25
2019-01-06T16:31:40.572Z,80.46
2019-01-06T16:34:28.282Z,80.67
2019-01-06T16:37:15.996Z,80.63
2019-01-06T16:40:03.693Z,80.45
2019-01-06T16:42:51.393Z,80.17
2019-01-06T16:45:39.105Z,79.99
2019-01-06T16:48:26.964Z,80.12
2019-01-06T16:51:14.642Z,80.22
2019-01-06T16:54:02.347Z,80.37
2019-01-06T16:59:39.131Z,80.04
2019-01-06T17:02:26.831Z,80.30
2019-01-06T17:05:14.553Z,80.76
2019-01-06T17:08:02.319Z,81.06
2019-01-06T17:10:50.113Z,81.10
2019-01-06T17:13:37.825Z,81.58
2019-01-06T17:16:25.557Z,82.02
2019-01-06T17:19:13.407Z,81.69
2019-01-06T17:22:01.066Z,81.74
2019-01-06T17:24:48.817Z,81.39
2019-01-06T17:30:46.471Z,80.96
2019-01-06T17:33:34.164Z,81.20
2019-01-06T17:36:21.875Z,81.61
2019-01-06T17:39:09.558Z,81.78
2019-01-06T17:44:32.990Z,80.75
2019-01-06T17:52:41.380Z,80.65
2019-01-06T17:55:29.094Z,80.87
2019-01-06T17:58:16.825Z,80.89
2019-01-06T18:01:04.521Z,80.67
2019-01-06T18:03:52.207Z,80.82
2019-01-06T18:06:39.942Z,81.03
2019-01-06T18:09:27.616Z,81.31
2019-01-06T18:12:15.350Z,81.03
2019-01-06T18:15:03.053Z,81.62
2019-01-06T18:17:50.771Z,81.45
2019-01-06T18:20:38.468Z,81.99
2019-01-06T18:26:01.370Z,82.20
2019-01-06T18:28:49.076Z,82.45
2019-01-06T18:31:36.812Z,82.51
2019-01-06T18:37:13.820Z,81.67
2019-01-06T18:40:01.510Z,82.10
2019-01-06T18:42:49.245Z,81.93
2019-01-06T18:45:36.986Z,81.60
2019-01-06T18:48:24.709Z,81.77
2019-01-06T18:51:12.402Z,82.23
2019-01-06T18:54:00.138Z,82.54
2019-01-06T18:56:47.839Z,82.45
2019-01-06T18:59:35.575Z,82.32
2019-01-06T19:02:23.253Z,82.10
2019-01-06T19:05:10.981Z,82.19
2019-01-06T19:08:00.169Z,81.73
2019-01-06T19:10:47.864Z,81.62
2019-01-06T19:13:35.644Z,82.32
2019-01-06T19:16:23.361Z,82.22
2019-01-06T19:19:11.081Z,82.86
2019-01-06T19:24:40.737Z,82.56
2019-01-06T19:27:28.432Z,82.34
2019-01-06T19:30:16.162Z,81.98
2019-01-06T19:33:03.839Z,81.93
2019-01-06T19:38:32.973Z,83.13
2019-01-06T19:44:09.742Z,82.80
2019-01-06T19:46:57.457Z,82.51
2019-01-06T19:49:45.146Z,82.36
2019-01-06T19:52:32.858Z,83.26
2019-01-06T19:55:20.581Z,83.18
2019-01-06T19:58:08.302Z,83.27
2019-01-06T20:03:31.380Z,82.63
2019-01-06T20:06:19.124Z,82.63
2019-01-06T20:09:06.816Z,83.51
2019-01-06T20:14:29.954Z,82.94
2019-01-06T20:17:17.635Z,83.61
2019-01-06T20:20:05.369Z,83.59
2019-01-06T20:22:53.059Z,83.81
2019-01-06T20:25:40.786Z,84.17
2019-01-06T20:28:28.486Z,84.50
2019-01-06T20:31:16.196Z,83.51
2019-01-06T20:34:03.893Z,83.54
2019-01-06T20:36:51.614Z,83.67
2019-01-06T20:39:39.294Z,83.55
2019-01-06T20:42:27.027Z,83.06
2019-01-06T20:45:14.784Z,83.06
2019-01-06T20:48:02.489Z,83.73
2019-01-06T20:50:50.199Z,83.42
2019-01-06T20:53:37.909Z,83.32
2019-01-06T20:56:25.610Z,83.12
2019-01-06T20:59:13.323Z,83.61
2019-01-06T21:02:01.037Z,84.71
2019-01-06T21:04:48.766Z,85.28
2019-01-06T21:07:36.495Z,85.12
2019-01-06T21:10:45.043Z,85.11
2019-01-06T21:13:32.724Z,85.02
2019-01-06T21:16:20.465Z,84.79
2019-01-06T21:19:08.223Z,84.69
2019-01-06T21:21:55.904Z,85.52
2019-01-06T21:24:43.603Z,85.86
2019-01-06T21:30:06.811Z,86.24
2019-01-06T21:32:54.537Z,85.86
2019-01-06T21:35:42.220Z,85.95
2019-01-06T21:38:29.955Z,85.64
2019-01-06T21:41:17.627Z,85.32
2019-01-06T21:44:05.358Z,85.97
2019-01-06T21:49:42.167Z,87.48
2019-01-06T21:52:29.896Z,87.21
2019-01-06T21:55:17.611Z,88.20
2019-01-06T21:58:05.318Z,88.33
2019-01-06T22:00:53.032Z,87.06
2019-01-06T22:08:51.279Z,88.40
2019-01-06T22:14:28.081Z,86.97
2019-01-06T22:17:15.762Z,88.49
2019-01-06T22:20:03.501Z,89.48
2019-01-06T22:25:40.326Z,88.40
2019-01-06T22:28:28.050Z,88.15
2019-01-06T22:31:15.782Z,88.09
2019-01-06T22:34:03.497Z,88.68
2019-01-06T22:44:50.554Z,88.63
2019-01-06T22:47:38.258Z,88.85
2019-01-06T22:53:01.511Z,88.51
2019-01-06T22:55:49.244Z,87.81
2019-01-06T22:58:36.919Z,89.64
2019-01-06T23:04:06.627Z,87.64
2019-01-06T23:09:40.350Z,88.81
2019-01-06T23:12:28.090Z,89.69
2019-01-06T23:15:15.800Z,89.60
2019-01-06T23:18:03.531Z,89.71
2019-01-06T23:20:51.215Z,89.96
2019-01-06T23:23:38.919Z,90.21
2019-01-06T23:26:26.660Z,88.59
2019-01-06T23:29:14.410Z,89.23
2019-01-06T23:32:02.114Z,90.18
2019-01-06T23:37:38.893Z,88.46
2019-01-06T23:40:26.675Z,88.68
2019-01-06T23:43:14.403Z,88.65
2019-01-06T23:46:02.093Z,87.92
2019-01-06T23:48:49.824Z,88.41
2019-01-06T23:51:37.530Z,88.71
2019-01-06T23:54:25.257Z,88.28
2019-01-06T23:57:12.963Z,87.98
